sensor_id;sensor_type;location;lat;lon;timestamp;temperature;humidity
8824;DHT22;4448;50.904;4.694;2023-02-01T00:01:51;7.40;99.90
8824;DHT22;4448;50.904;4.694;2023-02-01T00:04:17;7.40;99.90
8824;DHT22;4448;50.904;4.694;2023-02-01T00:06:42;7.40;99.90
8824;DHT22;4448;50.904;4.694;2023-02-01T00:09:08;7.40;99.90
8824;DHT22;4448;50.904;4.694;2023-02-01T00:11:34;7.40;99.90
8824;DHT22;4448;50.904;4.694;2023-02-01T00:13:59;7.40;99.90
8824;DHT22;4448;50.904;4.694;2023-02-01T00:16:27;7.40;99.90
8824;DHT22;4448;50.904;4.694;2023-02-01T00:18:58;7.40;99.90
8824;DHT22;4448;50.904;4.694;2023-02-01T00:21:25;7.40;99.90
8824;DHT22;4448;50.904;4.694;2023-02-01T00:23:50;7.40;99.90
8824;DHT22;4448;50.904;4.694;2023-02-01T00:26:31;7.40;99.90
8824;DHT22;4448;50.904;4.694;2023-02-01T00:28:57;7.40;99.90
8824;DHT22;4448;50.904;4.694;2023-02-01T00:31:23;7.40;99.90
8824;DHT22;4448;50.904;4.694;2023-02-01T00:33:48;7.40;99.90
8824;DHT22;4448;50.904;4.694;2023-02-01T00:36:15;7.40;99.90
8824;DHT22;4448;50.904;4.694;2023-02-01T00:38:41;7.40;99.90
8824;DHT22;4448;50.904;4.694;2023-02-01T00:41:10;7.40;99.90
8824;DHT22;4448;50.904;4.694;2023-02-01T00:43:36;7.40;99.90
8824;DHT22;4448;50.904;4.694;2023-02-01T00:46:02;7.40;99.90
8824;DHT22;4448;50.904;4.694;2023-02-01T00:48:29;7.40;99.90
8824;DHT22;4448;50.904;4.694;2023-02-01T00:51:02;7.40;99.90
8824;DHT22;4448;50.904;4.694;2023-02-01T00:53:28;7.40;99.90
8824;DHT22;4448;50.904;4.694;2023-02-01T00:55:54;7.40;99.90
8824;DHT22;4448;50.904;4.694;2023-02-01T00:58:19;7.40;99.90
8824;DHT22;4448;50.904;4.694;2023-02-01T01:00:45;7.40;99.90
8824;DHT22;4448;50.904;4.694;2023-02-01T01:03:12;7.40;99.90
8824;DHT22;4448;50.904;4.694;2023-02-01T01:05:48;7.40;99.90
8824;DHT22;4448;50.904;4.694;2023-02-01T01:08:14;7.40;99.90
8824;DHT22;4448;50.904;4.694;2023-02-01T01:10:41;7.40;99.90
8824;DHT22;4448;50.904;4.694;2023-02-01T01:13:07;7.40;99.90
8824;DHT22;4448;50.904;4.694;2023-02-01T01:15:39;7.40;99.90
8824;DHT22;4448;50.904;4.694;2023-02-01T01:18:05;7.40;99.90
8824;DHT22;4448;50.904;4.694;2023-02-01T01:20:34;7.40;99.90
8824;DHT22;4448;50.904;4.694;2023-02-01T01:23:00;7.40;99.90
8824;DHT22;4448;50.904;4.694;2023-02-01T01:25:26;7.40;99.90
8824;DHT22;4448;50.904;4.694;2023-02-01T01:27:51;7.40;99.90
8824;DHT22;4448;50.904;4.694;2023-02-01T01:30:17;7.40;99.90
8824;DHT22;4448;50.904;4.694;2023-02-01T01:32:43;7.40;99.90
8824;DHT22;4448;50.904;4.694;2023-02-01T01:35:09;7.50;99.90
8824;DHT22;4448;50.904;4.694;2023-02-01T01:37:35;7.40;99.90
8824;DHT22;4448;50.904;4.694;2023-02-01T01:40:05;7.40;99.90
8824;DHT22;4448;50.904;4.694;2023-02-01T01:42:30;7.40;99.90
8824;DHT22;4448;50.904;4.694;2023-02-01T01:45:05;7.50;99.90
8824;DHT22;4448;50.904;4.694;2023-02-01T01:47:43;7.40;99.90
8824;DHT22;4448;50.904;4.694;2023-02-01T01:50:14;7.50;99.90
8824;DHT22;4448;50.904;4.694;2023-02-01T01:52:44;7.50;99.90
8824;DHT22;4448;50.904;4.694;2023-02-01T01:55:13;7.50;99.90
8824;DHT22;4448;50.904;4.694;2023-02-01T01:57:42;7.40;99.90
8824;DHT22;4448;50.904;4.694;2023-02-01T02:00:12;7.40;99.90
8824;DHT22;4448;50.904;4.694;2023-02-01T02:02:39;7.40;99.90
8824;DHT22;4448;50.904;4.694;2023-02-01T02:05:06;7.40;99.90
8824;DHT22;4448;50.904;4.694;2023-02-01T02:07:36;7.40;99.90
8824;DHT22;4448;50.904;4.694;2023-02-01T02:10:05;7.40;99.90
8824;DHT22;4448;50.904;4.694;2023-02-01T02:12:31;7.40;99.90
8824;DHT22;4448;50.904;4.694;2023-02-01T02:14:57;7.40;99.90
8824;DHT22;4448;50.904;4.694;2023-02-01T02:23:14;7.40;99.90
8824;DHT22;4448;50.904;4.694;2023-02-01T02:32:08;7.40;99.90
8824;DHT22;4448;50.904;4.694;2023-02-01T02:37:42;7.40;99.90
8824;DHT22;4448;50.904;4.694;2023-02-01T02:40:28;7.30;99.90
8824;DHT22;4448;50.904;4.694;2023-02-01T02:43:09;7.30;99.90
8824;DHT22;4448;50.904;4.694;2023-02-01T02:46:01;7.30;99.90
8824;DHT22;4448;50.904;4.694;2023-02-01T02:49:05;7.20;99.90
8824;DHT22;4448;50.904;4.694;2023-02-01T02:54:32;7.20;99.90
8824;DHT22;4448;50.904;4.694;2023-02-01T03:00:05;7.10;99.90
8824;DHT22;4448;50.904;4.694;2023-02-01T03:02:50;7.10;99.90
8824;DHT22;4448;50.904;4.694;2023-02-01T03:05:36;7.10;99.90
8824;DHT22;4448;50.904;4.694;2023-02-01T03:08:14;7.10;99.90
8824;DHT22;4448;50.904;4.694;2023-02-01T03:11:02;7.10;99.90
8824;DHT22;4448;50.904;4.694;2023-02-01T03:13:50;7.10;99.90
8824;DHT22;4448;50.904;4.694;2023-02-01T03:18:57;7.00;99.90
8824;DHT22;4448;50.904;4.694;2023-02-01T03:21:31;7.00;99.90
8824;DHT22;4448;50.904;4.694;2023-02-01T03:24:16;7.10;99.90
8824;DHT22;4448;50.904;4.694;2023-02-01T03:26:47;7.00;99.90
8824;DHT22;4448;50.904;4.694;2023-02-01T03:29:19;7.00;99.90
8824;DHT22;4448;50.904;4.694;2023-02-01T03:31:47;7.00;99.90
8824;DHT22;4448;50.904;4.694;2023-02-01T03:34:13;7.00;99.90
8824;DHT22;4448;50.904;4.694;2023-02-01T03:37:01;7.00;99.90
8824;DHT22;4448;50.904;4.694;2023-02-01T03:39:29;7.00;99.90
8824;DHT22;4448;50.904;4.694;2023-02-01T03:42:00;7.00;99.90
8824;DHT22;4448;50.904;4.694;2023-02-01T03:44:34;7.00;99.90
8824;DHT22;4448;50.904;4.694;2023-02-01T03:47:09;7.00;99.90
8824;DHT22;4448;50.904;4.694;2023-02-01T03:50:06;7.00;99.90
8824;DHT22;4448;50.904;4.694;2023-02-01T03:52:51;7.00;99.90
8824;DHT22;4448;50.904;4.694;2023-02-01T03:55:20;7.00;99.90
8824;DHT22;4448;50.904;4.694;2023-02-01T03:57:57;7.00;99.90
8824;DHT22;4448;50.904;4.694;2023-02-01T04:00:25;7.00;99.90
8824;DHT22;4448;50.904;4.694;2023-02-01T04:02:52;7.00;99.90
8824;DHT22;4448;50.904;4.694;2023-02-01T04:05:18;7.00;99.90
8824;DHT22;4448;50.904;4.694;2023-02-01T04:07:44;6.90;99.90
8824;DHT22;4448;50.904;4.694;2023-02-01T04:10:10;7.00;99.90
8824;DHT22;4448;50.904;4.694;2023-02-01T04:12:36;6.90;99.90
8824;DHT22;4448;50.904;4.694;2023-02-01T04:15:02;7.00;99.90
8824;DHT22;4448;50.904;4.694;2023-02-01T04:17:28;6.90;99.90
8824;DHT22;4448;50.904;4.694;2023-02-01T04:19:54;6.90;99.90
8824;DHT22;4448;50.904;4.694;2023-02-01T04:22:19;6.90;99.90
8824;DHT22;4448;50.904;4.694;2023-02-01T04:24:45;6.90;99.90
8824;DHT22;4448;50.904;4.694;2023-02-01T04:27:11;6.90;99.90
8824;DHT22;4448;50.904;4.694;2023-02-01T04:29:36;6.80;99.90
8824;DHT22;4448;50.904;4.694;2023-02-01T04:32:02;6.80;99.90
8824;DHT22;4448;50.904;4.694;2023-02-01T04:34:28;6.80;99.90
8824;DHT22;4448;50.904;4.694;2023-02-01T04:36:53;6.80;99.90
8824;DHT22;4448;50.904;4.694;2023-02-01T04:39:19;6.80;99.90
8824;DHT22;4448;50.904;4.694;2023-02-01T04:41:45;6.80;99.90
8824;DHT22;4448;50.904;4.694;2023-02-01T04:44:16;6.80;99.90
8824;DHT22;4448;50.904;4.694;2023-02-01T04:46:42;6.80;99.90
8824;DHT22;4448;50.904;4.694;2023-02-01T04:49:09;6.80;99.90
8824;DHT22;4448;50.904;4.694;2023-02-01T04:51:35;6.80;99.90
8824;DHT22;4448;50.904;4.694;2023-02-01T04:54:01;6.80;99.90
8824;DHT22;4448;50.904;4.694;2023-02-01T04:56:27;6.80;99.90
8824;DHT22;4448;50.904;4.694;2023-02-01T04:58:53;6.80;99.90
8824;DHT22;4448;50.904;4.694;2023-02-01T05:01:19;6.80;99.90
8824;DHT22;4448;50.904;4.694;2023-02-01T05:03:44;6.80;99.90
8824;DHT22;4448;50.904;4.694;2023-02-01T05:06:10;6.70;99.90
8824;DHT22;4448;50.904;4.694;2023-02-01T05:08:36;6.70;99.90
8824;DHT22;4448;50.904;4.694;2023-02-01T05:11:01;6.70;99.90
8824;DHT22;4448;50.904;4.694;2023-02-01T05:13:29;6.70;99.90
8824;DHT22;4448;50.904;4.694;2023-02-01T05:16:14;6.70;99.90
8824;DHT22;4448;50.904;4.694;2023-02-01T05:18:39;6.70;99.90
8824;DHT22;4448;50.904;4.694;2023-02-01T05:21:05;6.70;99.90
8824;DHT22;4448;50.904;4.694;2023-02-01T05:23:31;6.70;99.90
8824;DHT22;4448;50.904;4.694;2023-02-01T05:26:00;6.60;99.90
8824;DHT22;4448;50.904;4.694;2023-02-01T05:28:26;6.70;99.90
8824;DHT22;4448;50.904;4.694;2023-02-01T05:30:52;6.70;99.90
8824;DHT22;4448;50.904;4.694;2023-02-01T05:33:18;6.60;99.90
8824;DHT22;4448;50.904;4.694;2023-02-01T05:35:44;6.60;99.90
8824;DHT22;4448;50.904;4.694;2023-02-01T05:38:09;6.60;99.90
8824;DHT22;4448;50.904;4.694;2023-02-01T05:40:35;6.70;99.90
8824;DHT22;4448;50.904;4.694;2023-02-01T05:43:00;6.60;99.90
8824;DHT22;4448;50.904;4.694;2023-02-01T05:45:26;6.60;99.90
8824;DHT22;4448;50.904;4.694;2023-02-01T05:47:52;6.60;99.90
8824;DHT22;4448;50.904;4.694;2023-02-01T05:50:17;6.60;99.90
8824;DHT22;4448;50.904;4.694;2023-02-01T05:52:43;6.60;99.90
8824;DHT22;4448;50.904;4.694;2023-02-01T05:55:09;6.60;99.90
8824;DHT22;4448;50.904;4.694;2023-02-01T05:57:35;6.50;99.90
8824;DHT22;4448;50.904;4.694;2023-02-01T06:00:01;6.60;99.90
8824;DHT22;4448;50.904;4.694;2023-02-01T06:02:27;6.50;99.90
8824;DHT22;4448;50.904;4.694;2023-02-01T06:04:52;6.50;99.90
8824;DHT22;4448;50.904;4.694;2023-02-01T06:07:18;6.50;99.90
8824;DHT22;4448;50.904;4.694;2023-02-01T06:09:44;6.50;99.90
8824;DHT22;4448;50.904;4.694;2023-02-01T06:12:09;6.50;99.90
8824;DHT22;4448;50.904;4.694;2023-02-01T06:14:35;6.20;99.90
8824;DHT22;4448;50.904;4.694;2023-02-01T06:17:02;6.50;99.90
8824;DHT22;4448;50.904;4.694;2023-02-01T06:19:28;6.50;99.90
8824;DHT22;4448;50.904;4.694;2023-02-01T06:21:53;6.50;99.90
8824;DHT22;4448;50.904;4.694;2023-02-01T06:24:19;6.50;99.90
8824;DHT22;4448;50.904;4.694;2023-02-01T06:26:45;6.50;99.90
8824;DHT22;4448;50.904;4.694;2023-02-01T06:29:10;6.50;99.90
8824;DHT22;4448;50.904;4.694;2023-02-01T06:31:36;6.50;99.90
8824;DHT22;4448;50.904;4.694;2023-02-01T06:34:02;6.50;99.90
8824;DHT22;4448;50.904;4.694;2023-02-01T06:36:28;6.40;99.90
8824;DHT22;4448;50.904;4.694;2023-02-01T06:38:55;6.50;99.90
8824;DHT22;4448;50.904;4.694;2023-02-01T06:41:22;6.50;99.90
8824;DHT22;4448;50.904;4.694;2023-02-01T06:43:48;6.50;99.90
8824;DHT22;4448;50.904;4.694;2023-02-01T06:46:13;6.50;99.90
8824;DHT22;4448;50.904;4.694;2023-02-01T06:48:39;6.50;99.90
8824;DHT22;4448;50.904;4.694;2023-02-01T06:51:05;6.50;99.90
8824;DHT22;4448;50.904;4.694;2023-02-01T06:53:30;6.50;99.90
8824;DHT22;4448;50.904;4.694;2023-02-01T06:55:59;6.50;99.90
8824;DHT22;4448;50.904;4.694;2023-02-01T06:58:31;6.50;99.90
8824;DHT22;4448;50.904;4.694;2023-02-01T07:00:58;6.40;99.90
8824;DHT22;4448;50.904;4.694;2023-02-01T07:03:23;6.40;99.90
8824;DHT22;4448;50.904;4.694;2023-02-01T07:05:49;6.40;99.90
8824;DHT22;4448;50.904;4.694;2023-02-01T07:08:15;6.40;99.90
8824;DHT22;4448;50.904;4.694;2023-02-01T07:10:40;6.40;99.90
8824;DHT22;4448;50.904;4.694;2023-02-01T07:13:06;6.40;99.90
8824;DHT22;4448;50.904;4.694;2023-02-01T07:15:32;6.40;99.90
8824;DHT22;4448;50.904;4.694;2023-02-01T07:17:57;6.40;99.90
8824;DHT22;4448;50.904;4.694;2023-02-01T07:20:23;6.40;99.90
8824;DHT22;4448;50.904;4.694;2023-02-01T07:22:53;6.40;99.90
8824;DHT22;4448;50.904;4.694;2023-02-01T07:25:19;6.40;99.90
8824;DHT22;4448;50.904;4.694;2023-02-01T07:27:45;6.40;99.90
8824;DHT22;4448;50.904;4.694;2023-02-01T07:30:12;6.40;99.90
8824;DHT22;4448;50.904;4.694;2023-02-01T07:32:38;6.40;99.90
8824;DHT22;4448;50.904;4.694;2023-02-01T07:35:03;6.40;99.90
8824;DHT22;4448;50.904;4.694;2023-02-01T07:37:29;6.40;99.90
8824;DHT22;4448;50.904;4.694;2023-02-01T07:39:56;6.40;99.90
8824;DHT22;4448;50.904;4.694;2023-02-01T07:42:21;6.40;99.90
8824;DHT22;4448;50.904;4.694;2023-02-01T07:44:47;6.40;99.90
8824;DHT22;4448;50.904;4.694;2023-02-01T07:47:13;6.40;99.90
8824;DHT22;4448;50.904;4.694;2023-02-01T07:49:38;6.40;99.90
8824;DHT22;4448;50.904;4.694;2023-02-01T07:52:04;6.40;99.90
8824;DHT22;4448;50.904;4.694;2023-02-01T07:54:29;6.50;99.90
8824;DHT22;4448;50.904;4.694;2023-02-01T07:56:56;6.60;99.90
8824;DHT22;4448;50.904;4.694;2023-02-01T07:59:21;6.50;99.90
8824;DHT22;4448;50.904;4.694;2023-02-01T08:01:47;6.50;99.90
8824;DHT22;4448;50.904;4.694;2023-02-01T08:04:12;6.40;99.90
8824;DHT22;4448;50.904;4.694;2023-02-01T08:06:39;6.50;99.90
8824;DHT22;4448;50.904;4.694;2023-02-01T08:09:05;6.00;99.90
8824;DHT22;4448;50.904;4.694;2023-02-01T08:11:31;6.50;99.90
8824;DHT22;4448;50.904;4.694;2023-02-01T08:13:58;6.50;99.90
8824;DHT22;4448;50.904;4.694;2023-02-01T08:16:24;6.50;99.90
8824;DHT22;4448;50.904;4.694;2023-02-01T08:18:52;6.60;99.90
8824;DHT22;4448;50.904;4.694;2023-02-01T08:21:26;6.60;99.90
8824;DHT22;4448;50.904;4.694;2023-02-01T08:24:04;6.60;99.90
8824;DHT22;4448;50.904;4.694;2023-02-01T08:26:30;6.70;99.90
8824;DHT22;4448;50.904;4.694;2023-02-01T08:28:58;6.70;99.90
8824;DHT22;4448;50.904;4.694;2023-02-01T08:31:26;6.60;99.90
8824;DHT22;4448;50.904;4.694;2023-02-01T08:33:54;6.70;99.90
8824;DHT22;4448;50.904;4.694;2023-02-01T08:36:24;6.70;99.90
8824;DHT22;4448;50.904;4.694;2023-02-01T08:38:50;6.70;99.90
8824;DHT22;4448;50.904;4.694;2023-02-01T08:41:19;6.70;99.90
8824;DHT22;4448;50.904;4.694;2023-02-01T08:43:45;6.80;99.90
8824;DHT22;4448;50.904;4.694;2023-02-01T08:46:11;6.80;99.90
8824;DHT22;4448;50.904;4.694;2023-02-01T08:48:37;6.80;99.90
8824;DHT22;4448;50.904;4.694;2023-02-01T08:51:08;6.80;99.90
8824;DHT22;4448;50.904;4.694;2023-02-01T08:53:36;6.80;99.90
8824;DHT22;4448;50.904;4.694;2023-02-01T08:56:02;6.90;99.90
8824;DHT22;4448;50.904;4.694;2023-02-01T08:58:28;6.90;99.90
8824;DHT22;4448;50.904;4.694;2023-02-01T09:00:54;6.90;99.90
8824;DHT22;4448;50.904;4.694;2023-02-01T09:03:19;6.90;99.90
8824;DHT22;4448;50.904;4.694;2023-02-01T09:05:46;6.90;99.90
8824;DHT22;4448;50.904;4.694;2023-02-01T09:08:13;7.00;99.90
8824;DHT22;4448;50.904;4.694;2023-02-01T09:10:41;7.00;99.90
8824;DHT22;4448;50.904;4.694;2023-02-01T09:13:07;7.00;99.90
8824;DHT22;4448;50.904;4.694;2023-02-01T09:15:33;7.10;99.90
8824;DHT22;4448;50.904;4.694;2023-02-01T09:17:59;7.10;99.90
8824;DHT22;4448;50.904;4.694;2023-02-01T09:20:25;7.10;99.90
8824;DHT22;4448;50.904;4.694;2023-02-01T09:22:51;7.10;99.90
8824;DHT22;4448;50.904;4.694;2023-02-01T09:25:17;7.10;99.90
8824;DHT22;4448;50.904;4.694;2023-02-01T09:27:43;7.20;99.90
8824;DHT22;4448;50.904;4.694;2023-02-01T09:30:15;7.20;99.90
8824;DHT22;4448;50.904;4.694;2023-02-01T09:32:41;7.30;99.90
8824;DHT22;4448;50.904;4.694;2023-02-01T09:35:07;7.30;99.90
8824;DHT22;4448;50.904;4.694;2023-02-01T09:37:32;7.40;99.90
8824;DHT22;4448;50.904;4.694;2023-02-01T09:39:58;7.40;99.90
8824;DHT22;4448;50.904;4.694;2023-02-01T09:48:12;7.50;99.90
8824;DHT22;4448;50.904;4.694;2023-02-01T09:50:43;7.60;99.90
8824;DHT22;4448;50.904;4.694;2023-02-01T09:55:43;7.70;99.90
8824;DHT22;4448;50.904;4.694;2023-02-01T10:00:47;7.80;99.90
8824;DHT22;4448;50.904;4.694;2023-02-01T10:03:15;7.80;99.90
8824;DHT22;4448;50.904;4.694;2023-02-01T10:11:32;8.00;99.90
8824;DHT22;4448;50.904;4.694;2023-02-01T10:14:25;8.00;99.90
8824;DHT22;4448;50.904;4.694;2023-02-01T10:20:04;8.20;99.90
8824;DHT22;4448;50.904;4.694;2023-02-01T10:22:43;8.20;99.90
8824;DHT22;4448;50.904;4.694;2023-02-01T10:25:14;8.30;99.90
8824;DHT22;4448;50.904;4.694;2023-02-01T10:27:43;8.30;99.90
8824;DHT22;4448;50.904;4.694;2023-02-01T10:32:40;8.50;99.90
8824;DHT22;4448;50.904;4.694;2023-02-01T10:35:13;8.60;99.90
8824;DHT22;4448;50.904;4.694;2023-02-01T10:37:42;8.60;99.90
8824;DHT22;4448;50.904;4.694;2023-02-01T10:40:18;8.70;99.90
8824;DHT22;4448;50.904;4.694;2023-02-01T10:42:48;8.70;99.90
8824;DHT22;4448;50.904;4.694;2023-02-01T10:45:22;8.80;99.90
8824;DHT22;4448;50.904;4.694;2023-02-01T10:47:50;8.80;99.90
8824;DHT22;4448;50.904;4.694;2023-02-01T10:53:58;8.90;99.90
8824;DHT22;4448;50.904;4.694;2023-02-01T10:56:29;9.00;99.90
8824;DHT22;4448;50.904;4.694;2023-02-01T10:59:17;9.00;99.90
8824;DHT22;4448;50.904;4.694;2023-02-01T11:01:45;9.10;99.90
8824;DHT22;4448;50.904;4.694;2023-02-01T11:04:19;9.10;99.90
8824;DHT22;4448;50.904;4.694;2023-02-01T11:06:52;9.10;99.90
8824;DHT22;4448;50.904;4.694;2023-02-01T11:09:23;9.20;99.90
8824;DHT22;4448;50.904;4.694;2023-02-01T11:11:57;9.20;99.90
8824;DHT22;4448;50.904;4.694;2023-02-01T11:14:39;9.20;99.90
8824;DHT22;4448;50.904;4.694;2023-02-01T11:17:30;9.30;99.90
8824;DHT22;4448;50.904;4.694;2023-02-01T11:20:04;9.30;99.90
8824;DHT22;4448;50.904;4.694;2023-02-01T11:22:31;9.40;99.90
8824;DHT22;4448;50.904;4.694;2023-02-01T11:24:57;9.40;99.90
8824;DHT22;4448;50.904;4.694;2023-02-01T11:27:25;9.40;99.90
8824;DHT22;4448;50.904;4.694;2023-02-01T11:29:54;9.40;99.90
8824;DHT22;4448;50.904;4.694;2023-02-01T11:32:23;9.40;99.90
8824;DHT22;4448;50.904;4.694;2023-02-01T11:35:01;9.40;99.90
8824;DHT22;4448;50.904;4.694;2023-02-01T11:37:31;9.40;99.90
8824;DHT22;4448;50.904;4.694;2023-02-01T11:40:01;9.40;99.90
8824;DHT22;4448;50.904;4.694;2023-02-01T11:42:28;9.40;99.90
8824;DHT22;4448;50.904;4.694;2023-02-01T11:45:20;9.40;99.90
8824;DHT22;4448;50.904;4.694;2023-02-01T11:47:52;9.40;99.90
8824;DHT22;4448;50.904;4.694;2023-02-01T11:55:56;9.40;99.90
8824;DHT22;4448;50.904;4.694;2023-02-01T12:06:53;9.50;99.90
8824;DHT22;4448;50.904;4.694;2023-02-01T12:12:50;9.50;99.90
8824;DHT22;4448;50.904;4.694;2023-02-01T12:15:31;9.50;99.90
8824;DHT22;4448;50.904;4.694;2023-02-01T12:40:25;9.70;99.90
8824;DHT22;4448;50.904;4.694;2023-02-01T12:45:32;9.70;99.90
8824;DHT22;4448;50.904;4.694;2023-02-01T12:50:59;9.70;99.90
8824;DHT22;4448;50.904;4.694;2023-02-01T12:53:30;9.70;99.90
8824;DHT22;4448;50.904;4.694;2023-02-01T12:56:04;9.70;99.90
8824;DHT22;4448;50.904;4.694;2023-02-01T12:58:44;9.70;99.90
8824;DHT22;4448;50.904;4.694;2023-02-01T13:01:34;9.60;99.90
8824;DHT22;4448;50.904;4.694;2023-02-01T13:04:32;9.70;99.90
8824;DHT22;4448;50.904;4.694;2023-02-01T13:07:12;9.70;99.90
8824;DHT22;4448;50.904;4.694;2023-02-01T13:09:56;9.70;99.90
8824;DHT22;4448;50.904;4.694;2023-02-01T13:12:28;9.70;99.90
8824;DHT22;4448;50.904;4.694;2023-02-01T13:17:47;9.70;99.90
8824;DHT22;4448;50.904;4.694;2023-02-01T13:20:47;9.70;99.90
8824;DHT22;4448;50.904;4.694;2023-02-01T13:23:27;9.60;99.90
8824;DHT22;4448;50.904;4.694;2023-02-01T13:25:54;9.70;99.90
8824;DHT22;4448;50.904;4.694;2023-02-01T13:39:41;9.70;99.90
8824;DHT22;4448;50.904;4.694;2023-02-01T13:44:59;9.70;99.90
8824;DHT22;4448;50.904;4.694;2023-02-01T13:50:13;9.80;99.90
8824;DHT22;4448;50.904;4.694;2023-02-01T13:52:45;9.80;99.90
8824;DHT22;4448;50.904;4.694;2023-02-01T13:57:48;9.80;99.90
8824;DHT22;4448;50.904;4.694;2023-02-01T14:02:48;9.80;99.90
8824;DHT22;4448;50.904;4.694;2023-02-01T14:13:40;9.70;99.90
8824;DHT22;4448;50.904;4.694;2023-02-01T14:16:13;9.70;99.90
8824;DHT22;4448;50.904;4.694;2023-02-01T14:21:32;9.70;99.90
8824;DHT22;4448;50.904;4.694;2023-02-01T14:26:46;9.60;99.90
8824;DHT22;4448;50.904;4.694;2023-02-01T14:32:24;9.60;99.90
8824;DHT22;4448;50.904;4.694;2023-02-01T14:34:53;9.60;99.90
8824;DHT22;4448;50.904;4.694;2023-02-01T14:37:26;9.60;99.90
8824;DHT22;4448;50.904;4.694;2023-02-01T14:42:50;9.60;99.90
8824;DHT22;4448;50.904;4.694;2023-02-01T14:50:45;9.50;99.90
8824;DHT22;4448;50.904;4.694;2023-02-01T14:55:44;9.60;99.90
8824;DHT22;4448;50.904;4.694;2023-02-01T15:00:58;9.50;99.90
8824;DHT22;4448;50.904;4.694;2023-02-01T15:03:34;9.50;99.90
8824;DHT22;4448;50.904;4.694;2023-02-01T15:06:02;9.50;99.90
8824;DHT22;4448;50.904;4.694;2023-02-01T15:08:33;9.50;99.90
8824;DHT22;4448;50.904;4.694;2023-02-01T15:11:04;9.50;99.90
8824;DHT22;4448;50.904;4.694;2023-02-01T15:13:32;9.50;99.90
8824;DHT22;4448;50.904;4.694;2023-02-01T15:16:02;9.50;99.90
8824;DHT22;4448;50.904;4.694;2023-02-01T15:18:28;9.50;99.90
8824;DHT22;4448;50.904;4.694;2023-02-01T15:21:02;9.40;99.90
8824;DHT22;4448;50.904;4.694;2023-02-01T15:23:29;9.40;99.90
8824;DHT22;4448;50.904;4.694;2023-02-01T15:25:55;9.40;99.90
8824;DHT22;4448;50.904;4.694;2023-02-01T15:28:21;9.40;99.90
8824;DHT22;4448;50.904;4.694;2023-02-01T15:30:58;9.40;99.90
8824;DHT22;4448;50.904;4.694;2023-02-01T15:33:24;9.40;99.90
8824;DHT22;4448;50.904;4.694;2023-02-01T15:35:53;9.40;99.90
8824;DHT22;4448;50.904;4.694;2023-02-01T15:41:04;9.30;99.90
8824;DHT22;4448;50.904;4.694;2023-02-01T15:43:37;9.40;99.90
8824;DHT22;4448;50.904;4.694;2023-02-01T15:46:09;9.40;99.90
8824;DHT22;4448;50.904;4.694;2023-02-01T15:48:50;9.30;99.90
8824;DHT22;4448;50.904;4.694;2023-02-01T15:51:22;9.30;99.90
8824;DHT22;4448;50.904;4.694;2023-02-01T15:54:01;9.30;99.90
8824;DHT22;4448;50.904;4.694;2023-02-01T15:56:32;9.30;99.90
8824;DHT22;4448;50.904;4.694;2023-02-01T15:59:01;9.30;99.90
8824;DHT22;4448;50.904;4.694;2023-02-01T16:01:27;9.30;99.90
8824;DHT22;4448;50.904;4.694;2023-02-01T16:06:54;9.20;99.90
8824;DHT22;4448;50.904;4.694;2023-02-01T16:09:22;9.20;99.90
8824;DHT22;4448;50.904;4.694;2023-02-01T16:11:58;9.20;99.90
8824;DHT22;4448;50.904;4.694;2023-02-01T16:14:27;9.20;99.90
8824;DHT22;4448;50.904;4.694;2023-02-01T16:16:58;9.20;99.90
8824;DHT22;4448;50.904;4.694;2023-02-01T16:19:29;9.20;99.90
8824;DHT22;4448;50.904;4.694;2023-02-01T16:21:55;9.20;99.90
8824;DHT22;4448;50.904;4.694;2023-02-01T16:24:21;9.20;99.90
8824;DHT22;4448;50.904;4.694;2023-02-01T16:26:50;9.20;99.90
8824;DHT22;4448;50.904;4.694;2023-02-01T16:29:15;9.10;99.90
8824;DHT22;4448;50.904;4.694;2023-02-01T16:31:42;9.10;99.90
8824;DHT22;4448;50.904;4.694;2023-02-01T16:34:15;9.10;99.90
8824;DHT22;4448;50.904;4.694;2023-02-01T16:36:43;9.10;99.90
8824;DHT22;4448;50.904;4.694;2023-02-01T16:39:11;9.10;99.90
8824;DHT22;4448;50.904;4.694;2023-02-01T16:41:38;9.10;99.90
8824;DHT22;4448;50.904;4.694;2023-02-01T16:44:04;9.00;99.90
8824;DHT22;4448;50.904;4.694;2023-02-01T16:46:34;9.00;99.90
8824;DHT22;4448;50.904;4.694;2023-02-01T16:49:01;9.00;99.90
8824;DHT22;4448;50.904;4.694;2023-02-01T16:51:30;9.00;99.90
8824;DHT22;4448;50.904;4.694;2023-02-01T16:54:00;9.00;99.90
8824;DHT22;4448;50.904;4.694;2023-02-01T16:56:30;9.00;99.90
8824;DHT22;4448;50.904;4.694;2023-02-01T16:58:56;8.90;99.90
8824;DHT22;4448;50.904;4.694;2023-02-01T17:01:22;9.00;99.90
8824;DHT22;4448;50.904;4.694;2023-02-01T17:03:49;8.90;99.90
8824;DHT22;4448;50.904;4.694;2023-02-01T17:06:17;9.00;99.90
8824;DHT22;4448;50.904;4.694;2023-02-01T17:08:52;9.00;99.90
8824;DHT22;4448;50.904;4.694;2023-02-01T17:11:19;9.00;99.90
8824;DHT22;4448;50.904;4.694;2023-02-01T17:13:45;9.00;99.90
8824;DHT22;4448;50.904;4.694;2023-02-01T17:16:28;9.00;99.90
8824;DHT22;4448;50.904;4.694;2023-02-01T17:19:02;9.00;99.90
8824;DHT22;4448;50.904;4.694;2023-02-01T17:21:33;9.00;99.90
8824;DHT22;4448;50.904;4.694;2023-02-01T17:24:00;9.00;99.90
8824;DHT22;4448;50.904;4.694;2023-02-01T17:26:26;9.00;99.90
8824;DHT22;4448;50.904;4.694;2023-02-01T17:28:52;9.00;99.90
8824;DHT22;4448;50.904;4.694;2023-02-01T17:31:17;9.00;99.90
8824;DHT22;4448;50.904;4.694;2023-02-01T17:33:44;9.00;99.90
8824;DHT22;4448;50.904;4.694;2023-02-01T17:36:13;9.00;99.90
8824;DHT22;4448;50.904;4.694;2023-02-01T17:38:39;9.00;99.90
8824;DHT22;4448;50.904;4.694;2023-02-01T17:41:05;9.00;99.90
8824;DHT22;4448;50.904;4.694;2023-02-01T17:43:31;9.00;99.90
8824;DHT22;4448;50.904;4.694;2023-02-01T17:46:17;9.00;99.90
8824;DHT22;4448;50.904;4.694;2023-02-01T17:48:52;8.90;99.90
8824;DHT22;4448;50.904;4.694;2023-02-01T17:51:21;8.90;99.90
8824;DHT22;4448;50.904;4.694;2023-02-01T17:53:47;8.90;99.90
8824;DHT22;4448;50.904;4.694;2023-02-01T17:56:15;8.90;99.90
8824;DHT22;4448;50.904;4.694;2023-02-01T17:58:42;8.90;99.90
8824;DHT22;4448;50.904;4.694;2023-02-01T18:01:20;8.90;99.90
8824;DHT22;4448;50.904;4.694;2023-02-01T18:03:46;8.90;99.90
8824;DHT22;4448;50.904;4.694;2023-02-01T18:06:15;8.90;99.90
8824;DHT22;4448;50.904;4.694;2023-02-01T18:08:41;8.90;99.90
8824;DHT22;4448;50.904;4.694;2023-02-01T18:11:18;8.90;99.90
8824;DHT22;4448;50.904;4.694;2023-02-01T18:13:45;8.90;99.90
8824;DHT22;4448;50.904;4.694;2023-02-01T18:16:20;8.90;99.90
8824;DHT22;4448;50.904;4.694;2023-02-01T18:18:47;8.90;99.90
8824;DHT22;4448;50.904;4.694;2023-02-01T18:21:14;8.90;99.90
8824;DHT22;4448;50.904;4.694;2023-02-01T18:23:42;8.90;99.90
8824;DHT22;4448;50.904;4.694;2023-02-01T18:26:10;8.90;99.90
8824;DHT22;4448;50.904;4.694;2023-02-01T18:28:36;8.80;99.90
8824;DHT22;4448;50.904;4.694;2023-02-01T18:31:04;8.80;99.90
8824;DHT22;4448;50.904;4.694;2023-02-01T18:33:30;8.80;99.90
8824;DHT22;4448;50.904;4.694;2023-02-01T18:35:57;8.80;99.90
8824;DHT22;4448;50.904;4.694;2023-02-01T18:38:23;8.80;99.90
8824;DHT22;4448;50.904;4.694;2023-02-01T18:40:51;8.80;99.90
8824;DHT22;4448;50.904;4.694;2023-02-01T18:43:18;8.80;99.90
8824;DHT22;4448;50.904;4.694;2023-02-01T18:45:44;8.70;99.90
8824;DHT22;4448;50.904;4.694;2023-02-01T18:48:11;8.70;99.90
8824;DHT22;4448;50.904;4.694;2023-02-01T18:50:39;8.70;99.90
8824;DHT22;4448;50.904;4.694;2023-02-01T18:53:09;8.70;99.90
8824;DHT22;4448;50.904;4.694;2023-02-01T18:55:36;8.70;99.90
8824;DHT22;4448;50.904;4.694;2023-02-01T18:58:03;8.70;99.90
8824;DHT22;4448;50.904;4.694;2023-02-01T19:00:31;8.70;99.90
8824;DHT22;4448;50.904;4.694;2023-02-01T19:02:57;8.70;99.90
8824;DHT22;4448;50.904;4.694;2023-02-01T19:05:22;8.60;99.90
8824;DHT22;4448;50.904;4.694;2023-02-01T19:07:48;8.60;99.90